createdAt,value
2023-05-03T00:02:22.152Z,7.07
2023-05-03T00:05:26.126Z,6.68
2023-05-03T00:08:28.301Z,5.60
2023-05-03T00:11:32.695Z,6.05
2023-05-03T00:14:35.636Z,7.88
2023-05-03T00:17:39.023Z,6.10
2023-05-03T00:20:40.802Z,7.40
2023-05-03T00:23:42.988Z,6.70
2023-05-03T00:26:44.847Z,5.80
2023-05-03T00:29:46.764Z,5.75
2023-05-03T00:32:52.461Z,6.30
2023-05-03T00:35:54.951Z,5.60
2023-05-03T00:38:57.502Z,5.55
2023-05-03T00:41:59.813Z,5.78
2023-05-03T00:45:02.940Z,7.75
2023-05-03T00:48:06.550Z,6.38
2023-05-03T00:51:08.981Z,7.63
2023-05-03T00:54:11.471Z,6.15
2023-05-03T00:57:16.041Z,6.55
2023-05-03T01:00:18.492Z,5.50
2023-05-03T01:03:24.356Z,6.57
2023-05-03T01:06:36.252Z,6.20
2023-05-03T01:09:46.331Z,6.93
2023-05-03T01:12:55.916Z,5.80
2023-05-03T01:16:04.714Z,6.10
2023-05-03T01:19:25.573Z,6.18
2023-05-03T01:22:35.420Z,6.60
2023-05-03T01:25:38.558Z,5.65
2023-05-03T01:28:40.599Z,6.45
2023-05-03T01:31:53.418Z,5.85
2023-05-03T01:35:04.162Z,5.93
2023-05-03T01:38:09.859Z,5.60
2023-05-03T01:41:18.512Z,7.22
2023-05-03T01:44:23.128Z,8.95
2023-05-03T01:47:25.022Z,5.75
2023-05-03T01:50:27.410Z,6.50
2023-05-03T01:53:29.624Z,5.75
2023-05-03T01:56:35.456Z,6.00
2023-05-03T01:59:37.206Z,7.60
2023-05-03T02:02:39.003Z,5.63
2023-05-03T02:05:41.061Z,6.93
2023-05-03T02:08:45.163Z,7.00
2023-05-03T02:11:48.520Z,6.32
2023-05-03T02:14:50.502Z,6.57
2023-05-03T02:17:52.490Z,9.50
2023-05-03T02:20:55.409Z,6.38
2023-05-03T02:23:57.408Z,6.88
2023-05-03T02:27:02.797Z,5.53
2023-05-03T02:30:05.823Z,6.10
2023-05-03T02:33:08.373Z,6.93
2023-05-03T02:36:12.746Z,6.30
2023-05-03T02:39:15.233Z,6.38
2023-05-03T02:42:18.450Z,5.80
2023-05-03T02:45:21.267Z,7.35
2023-05-03T02:48:23.331Z,7.85
2023-05-03T02:51:25.334Z,7.93
2023-05-03T02:54:29.299Z,5.80
2023-05-03T02:57:32.865Z,7.18
2023-05-03T03:00:35.353Z,6.63
2023-05-03T03:03:40.280Z,5.95
2023-05-03T03:06:42.137Z,6.68
2023-05-03T03:09:44.002Z,8.90
2023-05-03T03:12:49.512Z,6.95
2023-05-03T03:15:52.225Z,10.48
2023-05-03T03:18:54.987Z,14.40
2023-05-03T03:21:56.779Z,9.40
2023-05-03T03:24:58.846Z,9.55
2023-05-03T03:28:03.055Z,6.75
2023-05-03T03:31:05.201Z,7.65
2023-05-03T03:34:08.036Z,9.48
2023-05-03T03:37:09.759Z,10.93
2023-05-03T03:40:15.601Z,11.15
2023-05-03T03:43:20.403Z,9.23
2023-05-03T03:46:22.993Z,7.45
2023-05-03T03:49:24.904Z,6.03
2023-05-03T03:52:26.629Z,7.03
2023-05-03T03:55:28.908Z,7.50
2023-05-03T03:58:32.181Z,15.65
2023-05-03T04:01:34.487Z,9.18
2023-05-03T04:04:37.701Z,8.68
2023-05-03T04:07:39.701Z,8.63
2023-05-03T04:10:41.713Z,8.77
2023-05-03T04:13:48.576Z,9.70
2023-05-03T04:16:50.671Z,10.93
2023-05-03T04:19:52.774Z,9.05
2023-05-03T04:22:55.381Z,9.15
2023-05-03T04:25:57.499Z,9.75
2023-05-03T04:29:00.735Z,10.45
2023-05-03T04:32:03.601Z,8.65
2023-05-03T04:35:06.229Z,9.48
2023-05-03T04:38:08.302Z,11.20
2023-05-03T04:41:16.126Z,12.68
2023-05-03T04:44:19.692Z,12.27
2023-05-03T04:47:21.773Z,13.27
2023-05-03T04:50:24.764Z,12.13
2023-05-03T04:53:27.220Z,12.15
2023-05-03T04:56:30.265Z,13.80
2023-05-03T04:59:36.300Z,15.93
2023-05-03T05:02:40.013Z,14.25
2023-05-03T05:05:41.867Z,12.73
2023-05-03T05:08:43.728Z,15.93
2023-05-03T05:11:45.817Z,14.07
2023-05-03T05:14:49.009Z,16.63
2023-05-03T05:17:53.479Z,17.92
2023-05-03T05:20:57.973Z,18.17
2023-05-03T05:24:00.160Z,18.17
2023-05-03T05:27:02.043Z,20.75
2023-05-03T05:30:06.668Z,18.90
2023-05-03T05:33:11.319Z,18.40
2023-05-03T05:36:13.800Z,22.15
2023-05-03T05:39:18.128Z,21.70
2023-05-03T05:42:19.966Z,19.38
2023-05-03T05:45:29.106Z,21.52
2023-05-03T05:48:31.429Z,21.88
2023-05-03T05:51:33.245Z,18.58
2023-05-03T05:54:35.283Z,17.33
2023-05-03T05:57:39.746Z,18.50
2023-05-03T06:00:42.927Z,18.63
2023-05-03T06:03:44.753Z,18.38
2023-05-03T06:06:49.264Z,19.25
2023-05-03T06:09:54.064Z,16.98
2023-05-03T06:12:55.923Z,17.67
2023-05-03T06:15:59.136Z,18.00
2023-05-03T06:19:00.976Z,17.38
2023-05-03T06:22:03.039Z,17.17
2023-05-03T06:25:05.947Z,18.88
2023-05-03T06:28:07.915Z,18.23
2023-05-03T06:31:11.293Z,17.30
2023-05-03T06:34:15.368Z,17.13
2023-05-03T06:37:17.531Z,16.88
2023-05-03T06:40:19.416Z,17.52
2023-05-03T06:43:23.620Z,17.35
2023-05-03T06:46:28.491Z,17.17
2023-05-03T06:49:30.806Z,15.68
2023-05-03T06:52:34.964Z,16.90
2023-05-03T06:55:37.042Z,18.42
2023-05-03T06:58:38.912Z,14.73
2023-05-03T07:01:42.491Z,22.95
2023-05-03T07:04:45.255Z,19.58
2023-05-03T07:07:48.602Z,15.63
2023-05-03T07:10:50.706Z,16.92
2023-05-03T07:13:53.139Z,14.10
2023-05-03T07:16:59.990Z,15.93
2023-05-03T07:20:03.241Z,15.43
2023-05-03T07:23:05.433Z,17.77
2023-05-03T07:26:07.824Z,14.57
2023-05-03T07:29:12.390Z,14.85
2023-05-03T07:32:16.111Z,16.83
2023-05-03T07:35:18.181Z,18.00
2023-05-03T07:38:22.884Z,17.63
2023-05-03T07:41:25.002Z,16.70
2023-05-03T07:44:27.101Z,15.90
2023-05-03T07:47:30.313Z,15.05
2023-05-03T07:50:32.966Z,21.80
2023-05-03T07:53:35.356Z,15.45
2023-05-03T07:56:38.478Z,16.30
2023-05-03T07:59:40.584Z,21.20
2023-05-03T08:02:44.171Z,17.10
2023-05-03T08:05:46.238Z,16.17
2023-05-03T08:08:48.080Z,21.33
2023-05-03T08:11:49.910Z,20.33
2023-05-03T08:14:53.140Z,25.15
2023-05-03T08:17:57.859Z,21.02
2023-05-03T08:20:59.882Z,19.13
2023-05-03T08:24:02.045Z,18.10
2023-05-03T08:27:05.349Z,16.58
2023-05-03T08:30:08.339Z,15.65
2023-05-03T08:33:11.520Z,20.92
2023-05-03T08:36:13.276Z,18.85
2023-05-03T08:39:16.450Z,16.95
2023-05-03T08:42:19.140Z,21.30
2023-05-03T08:45:20.944Z,17.00
2023-05-03T08:48:25.092Z,18.58
2023-05-03T08:51:26.948Z,21.73
2023-05-03T08:54:30.504Z,19.98
2023-05-03T08:57:34.115Z,17.60
2023-05-03T09:00:38.330Z,18.52
2023-05-03T09:03:49.763Z,17.85
2023-05-03T09:07:07.464Z,18.80
2023-05-03T09:10:26.125Z,17.80
2023-05-03T09:13:31.513Z,20.50
2023-05-03T09:16:33.362Z,19.65
2023-05-03T09:19:49.649Z,20.00
2023-05-03T09:22:51.839Z,19.90
2023-05-03T09:25:55.098Z,22.08
2023-05-03T09:28:59.377Z,17.67
2023-05-03T09:32:03.542Z,19.88
2023-05-03T09:35:16.340Z,18.02
2023-05-03T09:38:27.123Z,20.58
2023-05-03T09:41:30.203Z,18.20
2023-05-03T09:44:42.347Z,24.17
2023-05-03T09:47:50.214Z,19.13
2023-05-03T09:50:54.687Z,21.42
2023-05-03T09:53:56.710Z,21.83
2023-05-03T09:56:59.089Z,21.65
2023-05-03T10:00:00.936Z,21.05
2023-05-03T10:03:07.676Z,23.30
2023-05-03T10:06:23.001Z,21.65
2023-05-03T10:09:31.923Z,20.33
2023-05-03T10:12:34.892Z,17.35
2023-05-03T10:15:38.192Z,18.10
2023-05-03T10:18:47.897Z,21.25
2023-05-03T10:21:58.041Z,18.92
2023-05-03T10:25:11.175Z,19.90
2023-05-03T10:28:14.556Z,20.88
2023-05-03T10:31:48.280Z,32.47
2023-05-03T10:34:57.024Z,18.20
2023-05-03T10:38:17.057Z,15.93
2023-05-03T10:41:24.696Z,19.73
2023-05-03T10:44:27.796Z,19.83
2023-05-03T10:47:30.630Z,19.83
2023-05-03T10:50:32.462Z,27.70
2023-05-03T10:53:41.390Z,21.02
2023-05-03T10:56:54.576Z,23.25
2023-05-03T10:59:56.828Z,20.90
2023-05-03T11:03:36.535Z,24.92
2023-05-03T11:06:43.524Z,26.65
2023-05-03T11:09:47.715Z,26.92
2023-05-03T11:12:51.890Z,27.33
2023-05-03T11:15:55.055Z,26.90
2023-05-03T11:18:57.378Z,27.52
2023-05-03T11:22:03.075Z,23.55
2023-05-03T11:25:11.122Z,23.75
2023-05-03T11:28:13.138Z,26.15
2023-05-03T11:31:14.891Z,26.60
2023-05-03T11:34:16.752Z,27.15
2023-05-03T11:37:18.893Z,24.60
2023-05-03T11:40:25.049Z,23.77
2023-05-03T11:43:28.134Z,23.67
2023-05-03T11:46:34.489Z,23.75
2023-05-03T11:49:36.411Z,23.35
2023-05-03T11:52:39.286Z,22.38
2023-05-03T11:55:45.246Z,23.30
2023-05-03T11:58:51.462Z,19.20
2023-05-03T12:01:54.030Z,19.52
2023-05-03T12:04:58.086Z,19.70
2023-05-03T12:08:01.679Z,20.70
2023-05-03T12:11:07.091Z,20.30
2023-05-03T12:14:10.596Z,20.55
2023-05-03T12:17:15.521Z,18.63
2023-05-03T12:23:26.542Z,17.40
2023-05-03T12:26:30.142Z,20.33
2023-05-03T12:29:35.575Z,19.20
2023-05-03T12:32:39.331Z,18.58
2023-05-03T12:35:41.735Z,18.27
2023-05-03T12:38:45.232Z,17.67
2023-05-03T12:44:58.320Z,18.77
2023-05-03T12:48:00.470Z,17.55
2023-05-03T12:51:18.654Z,20.38
2023-05-03T12:54:26.763Z,24.73
2023-05-03T12:57:36.673Z,18.00
2023-05-03T13:00:46.613Z,16.80
2023-05-03T13:07:13.156Z,17.83
2023-05-03T13:13:22.009Z,16.58
2023-05-03T13:16:24.235Z,18.15
2023-05-03T13:19:26.050Z,19.38
2023-05-03T13:22:28.087Z,15.95
2023-05-03T13:25:33.080Z,14.27
2023-05-03T13:28:36.475Z,14.68
2023-05-03T13:31:40.471Z,18.27
2023-05-03T13:34:42.272Z,20.00
2023-05-03T13:37:44.060Z,15.90
2023-05-03T13:40:46.690Z,16.90
2023-05-03T13:43:50.013Z,17.48
2023-05-03T13:46:52.124Z,16.02
2023-05-03T13:49:55.523Z,15.95
2023-05-03T13:52:57.478Z,15.35
2023-05-03T13:56:00.328Z,15.88
2023-05-03T13:59:03.645Z,16.10
2023-05-03T14:02:08.539Z,13.52
2023-05-03T14:05:10.647Z,14.15
2023-05-03T14:08:12.389Z,14.65
2023-05-03T14:11:15.214Z,13.80
2023-05-03T14:14:18.614Z,14.27
2023-05-03T14:17:21.206Z,16.17
2023-05-03T14:20:30.610Z,13.15
2023-05-03T14:23:33.465Z,13.88
2023-05-03T14:26:36.033Z,12.38
2023-05-03T14:29:39.184Z,13.45
2023-05-03T14:32:43.159Z,13.20
2023-05-03T14:35:44.957Z,12.45
2023-05-03T14:38:46.790Z,16.17
2023-05-03T14:41:51.578Z,13.15
2023-05-03T14:44:56.212Z,11.35
2023-05-03T14:47:58.070Z,12.35
2023-05-03T14:51:01.222Z,12.60
2023-05-03T14:54:03.298Z,10.70
2023-05-03T14:57:05.616Z,15.45
2023-05-03T15:00:12.433Z,11.13
2023-05-03T15:03:15.290Z,14.55
2023-05-03T15:06:23.317Z,9.90
2023-05-03T15:09:25.194Z,11.05
2023-05-03T15:12:29.582Z,12.43
2023-05-03T15:15:35.284Z,10.20
2023-05-03T15:18:37.278Z,13.05
2023-05-03T15:21:46.797Z,12.35
2023-05-03T15:24:48.881Z,11.82
2023-05-03T15:27:54.410Z,15.20
2023-05-03T15:30:59.193Z,12.15
2023-05-03T15:34:02.843Z,15.45
2023-05-03T15:37:05.084Z,13.38
2023-05-03T15:40:09.322Z,13.20
2023-05-03T15:43:11.369Z,45.95
2023-05-03T15:46:16.541Z,16.20
2023-05-03T15:49:19.803Z,16.70
2023-05-03T15:52:24.007Z,21.63
2023-05-03T15:55:27.005Z,16.50
2023-05-03T15:58:29.877Z,14.18
2023-05-03T16:01:35.627Z,13.60
2023-05-03T16:04:37.738Z,19.25
2023-05-03T16:07:39.821Z,15.05
2023-05-03T16:10:41.732Z,19.38
2023-05-03T16:13:43.712Z,16.33
2023-05-03T16:16:48.443Z,18.80
2023-05-03T16:19:51.479Z,17.67
2023-05-03T16:22:53.757Z,18.70
2023-05-03T16:25:56.923Z,17.33
2023-05-03T16:28:59.029Z,16.23
2023-05-03T16:32:04.943Z,17.38
2023-05-03T16:35:07.537Z,20.33
2023-05-03T16:38:09.371Z,22.55
2023-05-03T16:41:11.151Z,22.38
2023-05-03T16:44:13.186Z,20.42
2023-05-03T16:47:16.379Z,17.50
2023-05-03T16:50:20.098Z,16.40
2023-05-03T16:53:22.268Z,18.13
2023-05-03T16:56:24.629Z,15.23
2023-05-03T16:59:27.110Z,17.90
2023-05-03T17:02:30.306Z,14.10
2023-05-03T17:05:32.467Z,14.52
2023-05-03T17:08:35.490Z,13.45
2023-05-03T17:11:37.589Z,22.50
2023-05-03T17:14:40.079Z,19.60
2023-05-03T17:17:45.692Z,16.10
2023-05-03T17:20:47.808Z,13.77
2023-05-03T17:23:49.661Z,13.82
2023-05-03T17:26:51.747Z,14.07
2023-05-03T17:29:53.916Z,11.52
2023-05-03T17:32:58.864Z,13.02
2023-05-03T17:36:02.245Z,12.52
2023-05-03T17:39:04.415Z,15.70
2023-05-03T17:42:06.231Z,12.65
2023-05-03T17:45:11.075Z,11.57
2023-05-03T17:48:14.705Z,13.43
2023-05-03T17:51:16.774Z,11.68
2023-05-03T17:54:21.185Z,11.50
2023-05-03T17:57:23.696Z,11.85
2023-05-03T18:00:26.402Z,11.80
2023-05-03T18:03:29.925Z,10.80
2023-05-03T18:06:34.786Z,14.85
2023-05-03T18:09:38.442Z,15.07
2023-05-03T18:12:43.030Z,11.82
2023-05-03T18:15:46.865Z,20.98
2023-05-03T18:18:51.029Z,11.25
2023-05-03T18:21:53.475Z,12.20
2023-05-03T18:24:55.912Z,13.05
2023-05-03T18:27:58.023Z,11.68
2023-05-03T18:31:00.027Z,13.52
2023-05-03T18:34:04.096Z,15.55
2023-05-03T18:37:06.729Z,12.95
2023-05-03T18:40:11.106Z,13.85
2023-05-03T18:43:15.717Z,13.73
2023-05-03T18:46:18.742Z,17.08
2023-05-03T18:49:24.265Z,17.85
2023-05-03T18:52:26.646Z,13.68
2023-05-03T18:55:29.530Z,14.70
2023-05-03T18:58:33.505Z,15.00
2023-05-03T19:01:35.804Z,17.48
2023-05-03T19:04:44.402Z,17.15
2023-05-03T19:07:48.287Z,16.23
2023-05-03T19:10:50.537Z,15.05
2023-05-03T19:13:54.240Z,13.32
2023-05-03T19:16:57.887Z,12.57
2023-05-03T19:20:04.059Z,13.13
2023-05-03T19:23:07.771Z,14.18
2023-05-03T19:26:10.836Z,12.20
2023-05-03T19:29:12.732Z,14.20
2023-05-03T19:32:18.863Z,12.88
2023-05-03T19:35:22.726Z,11.80
2023-05-03T19:38:35.325Z,11.43
2023-05-03T19:41:38.475Z,12.65
2023-05-03T19:44:41.715Z,11.48
2023-05-03T19:47:44.300Z,12.48
2023-05-03T19:50:48.167Z,11.35
2023-05-03T19:53:51.720Z,12.27
2023-05-03T19:56:54.000Z,14.02
2023-05-03T19:59:56.505Z,12.98
2023-05-03T20:03:00.456Z,13.23
2023-05-03T20:06:03.951Z,14.63
2023-05-03T20:09:08.061Z,12.27
2023-05-03T20:12:12.161Z,17.55
2023-05-03T20:15:14.128Z,20.42
2023-05-03T20:18:16.961Z,14.07
2023-05-03T20:21:20.653Z,13.07
2023-05-03T20:24:23.949Z,13.82
2023-05-03T20:27:26.175Z,12.77
2023-05-03T20:30:33.476Z,13.23
2023-05-03T20:33:36.383Z,20.27
2023-05-03T20:36:39.530Z,12.45
2023-05-03T20:39:44.333Z,15.63
2023-05-03T20:42:46.709Z,12.60
2023-05-03T20:45:48.582Z,15.70
2023-05-03T20:48:51.604Z,14.13
2023-05-03T20:51:55.517Z,14.60
2023-05-03T20:54:58.351Z,16.35
2023-05-03T20:58:05.277Z,13.00
2023-05-03T21:01:08.860Z,13.65
2023-05-03T21:04:10.696Z,17.30
2023-05-03T21:07:16.681Z,15.75
2023-05-03T21:10:19.758Z,11.88
2023-05-03T21:13:24.346Z,13.63
2023-05-03T21:16:26.272Z,13.73
2023-05-03T21:19:28.029Z,11.27
2023-05-03T21:22:31.215Z,13.05
2023-05-03T21:25:33.258Z,13.35
2023-05-03T21:28:35.166Z,14.45
2023-05-03T21:31:37.220Z,14.93
2023-05-03T21:34:39.210Z,14.65
2023-05-03T21:37:43.448Z,17.63
2023-05-03T21:40:45.620Z,14.27
2023-05-03T21:43:49.460Z,14.80
2023-05-03T21:46:51.848Z,16.98
2023-05-03T21:49:53.910Z,17.33
2023-05-03T21:52:57.806Z,14.73
2023-05-03T21:55:59.785Z,18.92
2023-05-03T21:59:01.983Z,17.40
2023-05-03T22:02:04.301Z,16.40
2023-05-03T22:05:07.522Z,16.65
2023-05-03T22:08:11.133Z,14.73
2023-05-03T22:11:13.141Z,13.20
2023-05-03T22:14:15.606Z,14.40
2023-05-03T22:17:17.947Z,13.65
2023-05-03T22:20:21.345Z,13.77
2023-05-03T22:23:25.275Z,13.80
2023-05-03T22:26:27.830Z,15.95
2023-05-03T22:29:29.638Z,15.43
2023-05-03T22:32:34.391Z,13.80
2023-05-03T22:35:38.028Z,15.07
2023-05-03T22:38:42.852Z,14.77
2023-05-03T22:41:45.402Z,13.80
2023-05-03T22:44:47.267Z,16.13
2023-05-03T22:47:49.574Z,13.52
2023-05-03T22:50:52.426Z,15.63
2023-05-03T22:53:55.927Z,22.20
2023-05-03T22:56:58.005Z,18.48
2023-05-03T23:00:00.981Z,17.52
2023-05-03T23:03:02.831Z,17.00
2023-05-03T23:06:05.572Z,15.93
2023-05-03T23:09:11.171Z,19.02
2023-05-03T23:12:13.215Z,15.25
2023-05-03T23:15:15.077Z,19.00
2023-05-03T23:18:18.952Z,22.58
2023-05-03T23:21:21.033Z,19.48
2023-05-03T23:24:29.047Z,19.50
2023-05-03T23:27:31.004Z,19.20
2023-05-03T23:30:34.234Z,20.85
2023-05-03T23:33:36.642Z,18.98
2023-05-03T23:36:38.721Z,20.38
2023-05-03T23:39:44.855Z,19.20
2023-05-03T23:42:49.206Z,20.85
2023-05-03T23:45:51.621Z,23.35
2023-05-03T23:48:57.717Z,22.23
2023-05-03T23:52:00.384Z,22.73
2023-05-03T23:55:06.003Z,23.08
2023-05-03T23:58:08.787Z,26.05
